sensor_id;sensor_type;location;lat;lon;timestamp;P1;durP1;ratioP1;P2;durP2;ratioP2
72939;SDS011;61094;51.154;13.570;2023-05-07T00:04:29;20.02;;;7.25;;
72939;SDS011;61094;51.154;13.570;2023-05-07T00:09:36;16.17;;;6.53;;
72939;SDS011;61094;51.154;13.570;2023-05-07T00:14:39;15.95;;;7.55;;
72939;SDS011;61094;51.154;13.570;2023-05-07T00:24:43;16.35;;;6.53;;
72939;SDS011;61094;51.154;13.570;2023-05-07T00:29:46;16.58;;;7.88;;
72939;SDS011;61094;51.154;13.570;2023-05-07T00:34:47;15.43;;;7.38;;
72939;SDS011;61094;51.154;13.570;2023-05-07T00:39:50;19.13;;;7.75;;
72939;SDS011;61094;51.154;13.570;2023-05-07T00:44:53;18.70;;;7.35;;
72939;SDS011;61094;51.154;13.570;2023-05-07T00:49:55;15.13;;;7.35;;
72939;SDS011;61094;51.154;13.570;2023-05-07T00:54:58;15.13;;;7.53;;
72939;SDS011;61094;51.154;13.570;2023-05-07T01:00:05;16.00;;;7.05;;
72939;SDS011;61094;51.154;13.570;2023-05-07T01:05:09;14.80;;;6.63;;
72939;SDS011;61094;51.154;13.570;2023-05-07T01:10:13;15.73;;;6.75;;
72939;SDS011;61094;51.154;13.570;2023-05-07T01:15:17;14.48;;;6.55;;
72939;SDS011;61094;51.154;13.570;2023-05-07T01:20:20;14.95;;;7.07;;
72939;SDS011;61094;51.154;13.570;2023-05-07T01:25:26;15.18;;;6.68;;
72939;SDS011;61094;51.154;13.570;2023-05-07T01:30:32;14.10;;;7.00;;
72939;SDS011;61094;51.154;13.570;2023-05-07T01:35:38;13.85;;;6.25;;
72939;SDS011;61094;51.154;13.570;2023-05-07T01:40:46;12.20;;;5.03;;
72939;SDS011;61094;51.154;13.570;2023-05-07T01:45:48;11.23;;;4.65;;
72939;SDS011;61094;51.154;13.570;2023-05-07T01:50:50;12.02;;;4.97;;
72939;SDS011;61094;51.154;13.570;2023-05-07T01:55:54;10.27;;;4.25;;
72939;SDS011;61094;51.154;13.570;2023-05-07T02:00:56;11.45;;;4.00;;
72939;SDS011;61094;51.154;13.570;2023-05-07T02:05:58;11.98;;;3.75;;
72939;SDS011;61094;51.154;13.570;2023-05-07T02:11:06;12.25;;;4.05;;
72939;SDS011;61094;51.154;13.570;2023-05-07T02:16:09;9.18;;;3.50;;
72939;SDS011;61094;51.154;13.570;2023-05-07T02:26:15;9.68;;;4.50;;
72939;SDS011;61094;51.154;13.570;2023-05-07T02:31:17;13.98;;;5.80;;
72939;SDS011;61094;51.154;13.570;2023-05-07T02:36:19;14.27;;;6.97;;
72939;SDS011;61094;51.154;13.570;2023-05-07T02:41:38;11.15;;;4.10;;
72939;SDS011;61094;51.154;13.570;2023-05-07T02:46:39;8.00;;;2.88;;
72939;SDS011;61094;51.154;13.570;2023-05-07T02:51:44;7.32;;;3.22;;
72939;SDS011;61094;51.154;13.570;2023-05-07T02:56:54;7.68;;;2.90;;
72939;SDS011;61094;51.154;13.570;2023-05-07T03:01:56;9.75;;;3.67;;
72939;SDS011;61094;51.154;13.570;2023-05-07T03:06:58;7.93;;;3.60;;
72939;SDS011;61094;51.154;13.570;2023-05-07T03:12:01;9.20;;;2.53;;
72939;SDS011;61094;51.154;13.570;2023-05-07T03:17:03;8.07;;;2.65;;
72939;SDS011;61094;51.154;13.570;2023-05-07T03:22:05;11.13;;;4.57;;
72939;SDS011;61094;51.154;13.570;2023-05-07T03:27:08;8.13;;;2.80;;
72939;SDS011;61094;51.154;13.570;2023-05-07T03:32:10;6.22;;;2.17;;
72939;SDS011;61094;51.154;13.570;2023-05-07T03:37:12;6.10;;;1.92;;
72939;SDS011;61094;51.154;13.570;2023-05-07T03:42:15;6.55;;;2.20;;
72939;SDS011;61094;51.154;13.570;2023-05-07T03:47:18;5.13;;;2.03;;
72939;SDS011;61094;51.154;13.570;2023-05-07T03:52:21;7.00;;;3.05;;
72939;SDS011;61094;51.154;13.570;2023-05-07T03:57:28;9.60;;;2.22;;
72939;SDS011;61094;51.154;13.570;2023-05-07T04:02:32;6.95;;;2.17;;
72939;SDS011;61094;51.154;13.570;2023-05-07T04:07:34;8.55;;;2.55;;
72939;SDS011;61094;51.154;13.570;2023-05-07T04:12:37;5.88;;;2.35;;
72939;SDS011;61094;51.154;13.570;2023-05-07T04:17:41;10.45;;;3.40;;
72939;SDS011;61094;51.154;13.570;2023-05-07T04:22:43;6.75;;;3.08;;
72939;SDS011;61094;51.154;13.570;2023-05-07T04:27:46;5.63;;;2.80;;
72939;SDS011;61094;51.154;13.570;2023-05-07T04:32:49;8.15;;;3.10;;
72939;SDS011;61094;51.154;13.570;2023-05-07T04:37:51;6.95;;;2.75;;
72939;SDS011;61094;51.154;13.570;2023-05-07T04:42:54;12.18;;;3.72;;
72939;SDS011;61094;51.154;13.570;2023-05-07T04:47:57;7.53;;;3.20;;
72939;SDS011;61094;51.154;13.570;2023-05-07T04:52:58;7.13;;;2.88;;
72939;SDS011;61094;51.154;13.570;2023-05-07T04:58:02;9.23;;;3.95;;
72939;SDS011;61094;51.154;13.570;2023-05-07T05:03:07;13.40;;;3.63;;
72939;SDS011;61094;51.154;13.570;2023-05-07T05:08:11;7.47;;;3.30;;
72939;SDS011;61094;51.154;13.570;2023-05-07T05:13:17;6.82;;;3.08;;
72939;SDS011;61094;51.154;13.570;2023-05-07T05:18:20;8.38;;;3.85;;
72939;SDS011;61094;51.154;13.570;2023-05-07T05:23:22;9.05;;;3.70;;
72939;SDS011;61094;51.154;13.570;2023-05-07T05:28:25;6.53;;;2.33;;
72939;SDS011;61094;51.154;13.570;2023-05-07T05:33:27;9.68;;;3.15;;
72939;SDS011;61094;51.154;13.570;2023-05-07T05:38:39;7.57;;;2.90;;
72939;SDS011;61094;51.154;13.570;2023-05-07T05:43:46;5.32;;;2.47;;
72939;SDS011;61094;51.154;13.570;2023-05-07T05:58:53;6.88;;;2.15;;
72939;SDS011;61094;51.154;13.570;2023-05-07T06:03:55;5.85;;;2.90;;
72939;SDS011;61094;51.154;13.570;2023-05-07T06:08:57;9.57;;;2.88;;
72939;SDS011;61094;51.154;13.570;2023-05-07T06:14:09;5.85;;;2.40;;
72939;SDS011;61094;51.154;13.570;2023-05-07T06:19:11;6.13;;;2.92;;
72939;SDS011;61094;51.154;13.570;2023-05-07T06:24:19;5.72;;;1.85;;
72939;SDS011;61094;51.154;13.570;2023-05-07T06:34:54;7.47;;;1.98;;
72939;SDS011;61094;51.154;13.570;2023-05-07T06:40:03;5.70;;;1.88;;
72939;SDS011;61094;51.154;13.570;2023-05-07T06:45:10;4.88;;;2.25;;
72939;SDS011;61094;51.154;13.570;2023-05-07T06:50:12;4.47;;;1.60;;
72939;SDS011;61094;51.154;13.570;2023-05-07T06:55:17;10.30;;;2.08;;
72939;SDS011;61094;51.154;13.570;2023-05-07T07:00:21;5.63;;;1.92;;
72939;SDS011;61094;51.154;13.570;2023-05-07T07:05:27;5.28;;;1.70;;
72939;SDS011;61094;51.154;13.570;2023-05-07T07:10:31;6.03;;;1.45;;
72939;SDS011;61094;51.154;13.570;2023-05-07T07:15:35;7.03;;;1.42;;
72939;SDS011;61094;51.154;13.570;2023-05-07T07:20:37;3.80;;;1.77;;
72939;SDS011;61094;51.154;13.570;2023-05-07T07:25:41;3.85;;;1.73;;
72939;SDS011;61094;51.154;13.570;2023-05-07T07:30:45;5.40;;;2.20;;
72939;SDS011;61094;51.154;13.570;2023-05-07T07:35:48;2.53;;;1.20;;
72939;SDS011;61094;51.154;13.570;2023-05-07T07:40:50;4.03;;;1.60;;
72939;SDS011;61094;51.154;13.570;2023-05-07T07:45:53;4.03;;;1.80;;
72939;SDS011;61094;51.154;13.570;2023-05-07T07:50:55;5.35;;;1.80;;
72939;SDS011;61094;51.154;13.570;2023-05-07T07:55:58;1.98;;;0.73;;
72939;SDS011;61094;51.154;13.570;2023-05-07T08:01:06;4.72;;;1.83;;
72939;SDS011;61094;51.154;13.570;2023-05-07T08:06:08;3.58;;;1.42;;
72939;SDS011;61094;51.154;13.570;2023-05-07T08:11:10;2.67;;;1.13;;
72939;SDS011;61094;51.154;13.570;2023-05-07T08:16:15;4.43;;;1.15;;
72939;SDS011;61094;51.154;13.570;2023-05-07T08:26:28;2.95;;;1.30;;
72939;SDS011;61094;51.154;13.570;2023-05-07T08:31:35;2.90;;;1.25;;
72939;SDS011;61094;51.154;13.570;2023-05-07T08:36:39;1.83;;;0.85;;
72939;SDS011;61094;51.154;13.570;2023-05-07T08:52:54;2.25;;;1.08;;
72939;SDS011;61094;51.154;13.570;2023-05-07T08:57:56;7.40;;;1.27;;
72939;SDS011;61094;51.154;13.570;2023-05-07T09:02:59;3.97;;;1.40;;
72939;SDS011;61094;51.154;13.570;2023-05-07T09:08:04;4.00;;;1.38;;
72939;SDS011;61094;51.154;13.570;2023-05-07T09:13:08;5.88;;;2.22;;
72939;SDS011;61094;51.154;13.570;2023-05-07T09:18:10;6.35;;;2.50;;
72939;SDS011;61094;51.154;13.570;2023-05-07T09:23:15;4.63;;;1.75;;
72939;SDS011;61094;51.154;13.570;2023-05-07T09:28:18;7.47;;;2.25;;
72939;SDS011;61094;51.154;13.570;2023-05-07T09:33:20;5.55;;;1.85;;
72939;SDS011;61094;51.154;13.570;2023-05-07T09:38:26;4.45;;;1.70;;
72939;SDS011;61094;51.154;13.570;2023-05-07T09:43:32;5.78;;;2.78;;
72939;SDS011;61094;51.154;13.570;2023-05-07T09:48:37;4.13;;;1.55;;
72939;SDS011;61094;51.154;13.570;2023-05-07T09:53:42;5.88;;;2.13;;
72939;SDS011;61094;51.154;13.570;2023-05-07T09:58:47;4.00;;;1.77;;
72939;SDS011;61094;51.154;13.570;2023-05-07T10:03:50;5.43;;;1.85;;
72939;SDS011;61094;51.154;13.570;2023-05-07T10:08:55;5.90;;;2.00;;
72939;SDS011;61094;51.154;13.570;2023-05-07T10:13:57;3.13;;;1.38;;
72939;SDS011;61094;51.154;13.570;2023-05-07T10:18:59;6.25;;;1.75;;
72939;SDS011;61094;51.154;13.570;2023-05-07T10:24:05;4.80;;;1.88;;
72939;SDS011;61094;51.154;13.570;2023-05-07T10:29:14;5.30;;;1.73;;
72939;SDS011;61094;51.154;13.570;2023-05-07T10:34:21;4.25;;;1.77;;
72939;SDS011;61094;51.154;13.570;2023-05-07T10:39:42;7.15;;;2.88;;
72939;SDS011;61094;51.154;13.570;2023-05-07T10:44:47;6.85;;;2.50;;
72939;SDS011;61094;51.154;13.570;2023-05-07T10:55:28;4.93;;;1.95;;
72939;SDS011;61094;51.154;13.570;2023-05-07T11:00:45;4.57;;;1.83;;
72939;SDS011;61094;51.154;13.570;2023-05-07T11:06:08;5.20;;;1.92;;
72939;SDS011;61094;51.154;13.570;2023-05-07T11:17:16;6.00;;;2.58;;
72939;SDS011;61094;51.154;13.570;2023-05-07T11:22:36;4.93;;;1.80;;
72939;SDS011;61094;51.154;13.570;2023-05-07T11:27:50;5.47;;;2.05;;
72939;SDS011;61094;51.154;13.570;2023-05-07T11:32:53;5.25;;;1.77;;
72939;SDS011;61094;51.154;13.570;2023-05-07T11:37:57;3.90;;;1.58;;
72939;SDS011;61094;51.154;13.570;2023-05-07T11:43:11;7.07;;;2.33;;
72939;SDS011;61094;51.154;13.570;2023-05-07T11:48:17;3.92;;;1.63;;
72939;SDS011;61094;51.154;13.570;2023-05-07T11:53:27;5.65;;;2.00;;
72939;SDS011;61094;51.154;13.570;2023-05-07T11:58:37;4.53;;;1.58;;
72939;SDS011;61094;51.154;13.570;2023-05-07T12:03:41;4.47;;;1.90;;
72939;SDS011;61094;51.154;13.570;2023-05-07T12:08:45;4.18;;;1.58;;
72939;SDS011;61094;51.154;13.570;2023-05-07T12:13:48;5.97;;;2.08;;
72939;SDS011;61094;51.154;13.570;2023-05-07T12:18:50;5.82;;;2.17;;
72939;SDS011;61094;51.154;13.570;2023-05-07T12:23:55;3.42;;;1.63;;
72939;SDS011;61094;51.154;13.570;2023-05-07T12:28:58;5.45;;;1.90;;
72939;SDS011;61094;51.154;13.570;2023-05-07T12:34:00;4.30;;;1.80;;
72939;SDS011;61094;51.154;13.570;2023-05-07T12:39:08;6.47;;;2.30;;
72939;SDS011;61094;51.154;13.570;2023-05-07T12:44:14;4.50;;;1.55;;
72939;SDS011;61094;51.154;13.570;2023-05-07T12:49:16;4.70;;;1.73;;
72939;SDS011;61094;51.154;13.570;2023-05-07T12:54:28;3.72;;;1.38;;
72939;SDS011;61094;51.154;13.570;2023-05-07T12:59:35;7.15;;;2.60;;
72939;SDS011;61094;51.154;13.570;2023-05-07T13:04:44;5.68;;;2.25;;
72939;SDS011;61094;51.154;13.570;2023-05-07T13:09:47;7.53;;;2.47;;
72939;SDS011;61094;51.154;13.570;2023-05-07T13:14:51;4.65;;;2.10;;
72939;SDS011;61094;51.154;13.570;2023-05-07T13:19:52;5.80;;;2.55;;
72939;SDS011;61094;51.154;13.570;2023-05-07T13:24:54;4.40;;;1.60;;
72939;SDS011;61094;51.154;13.570;2023-05-07T13:29:57;3.78;;;1.48;;
72939;SDS011;61094;51.154;13.570;2023-05-07T13:34:59;4.40;;;1.63;;
72939;SDS011;61094;51.154;13.570;2023-05-07T13:40:03;5.40;;;1.75;;
72939;SDS011;61094;51.154;13.570;2023-05-07T13:45:08;4.95;;;1.40;;
72939;SDS011;61094;51.154;13.570;2023-05-07T13:50:11;4.40;;;1.30;;
72939;SDS011;61094;51.154;13.570;2023-05-07T13:55:14;4.82;;;1.50;;
72939;SDS011;61094;51.154;13.570;2023-05-07T14:00:17;4.47;;;1.70;;
72939;SDS011;61094;51.154;13.570;2023-05-07T14:05:20;4.38;;;1.58;;
72939;SDS011;61094;51.154;13.570;2023-05-07T14:10:23;4.57;;;1.85;;
72939;SDS011;61094;51.154;13.570;2023-05-07T14:15:35;3.97;;;1.60;;
72939;SDS011;61094;51.154;13.570;2023-05-07T14:20:37;3.78;;;1.65;;
72939;SDS011;61094;51.154;13.570;2023-05-07T14:25:39;4.28;;;1.58;;
72939;SDS011;61094;51.154;13.570;2023-05-07T14:30:44;5.20;;;1.90;;
72939;SDS011;61094;51.154;13.570;2023-05-07T14:35:46;3.50;;;1.42;;
72939;SDS011;61094;51.154;13.570;2023-05-07T14:40:49;4.28;;;1.50;;
72939;SDS011;61094;51.154;13.570;2023-05-07T14:50:55;4.00;;;1.45;;
72939;SDS011;61094;51.154;13.570;2023-05-07T14:55:57;3.72;;;1.10;;
72939;SDS011;61094;51.154;13.570;2023-05-07T15:01:01;3.15;;;1.48;;
72939;SDS011;61094;51.154;13.570;2023-05-07T15:06:03;4.20;;;1.60;;
72939;SDS011;61094;51.154;13.570;2023-05-07T15:11:05;3.08;;;1.33;;
72939;SDS011;61094;51.154;13.570;2023-05-07T15:16:08;3.70;;;1.40;;
72939;SDS011;61094;51.154;13.570;2023-05-07T15:21:10;4.43;;;1.40;;
72939;SDS011;61094;51.154;13.570;2023-05-07T15:26:14;4.30;;;1.75;;
72939;SDS011;61094;51.154;13.570;2023-05-07T15:31:17;4.68;;;1.65;;
72939;SDS011;61094;51.154;13.570;2023-05-07T15:36:19;4.30;;;1.90;;
72939;SDS011;61094;51.154;13.570;2023-05-07T15:41:22;2.47;;;1.25;;
72939;SDS011;61094;51.154;13.570;2023-05-07T15:46:26;5.00;;;1.90;;
72939;SDS011;61094;51.154;13.570;2023-05-07T15:51:28;4.00;;;1.73;;
72939;SDS011;61094;51.154;13.570;2023-05-07T15:56:31;5.47;;;2.10;;
72939;SDS011;61094;51.154;13.570;2023-05-07T16:01:34;5.25;;;2.42;;
72939;SDS011;61094;51.154;13.570;2023-05-07T16:06:36;4.90;;;1.98;;
72939;SDS011;61094;51.154;13.570;2023-05-07T16:11:38;5.53;;;2.00;;
72939;SDS011;61094;51.154;13.570;2023-05-07T16:16:41;5.18;;;2.30;;
72939;SDS011;61094;51.154;13.570;2023-05-07T16:21:43;8.27;;;2.38;;
72939;SDS011;61094;51.154;13.570;2023-05-07T16:26:44;5.05;;;2.00;;
72939;SDS011;61094;51.154;13.570;2023-05-07T16:31:47;4.75;;;1.90;;
72939;SDS011;61094;51.154;13.570;2023-05-07T16:36:49;5.97;;;1.83;;
72939;SDS011;61094;51.154;13.570;2023-05-07T16:41:54;7.50;;;3.38;;
72939;SDS011;61094;51.154;13.570;2023-05-07T16:46:57;4.65;;;2.00;;
72939;SDS011;61094;51.154;13.570;2023-05-07T16:51:59;2.85;;;1.35;;
72939;SDS011;61094;51.154;13.570;2023-05-07T16:57:00;3.60;;;1.65;;
72939;SDS011;61094;51.154;13.570;2023-05-07T17:02:05;4.53;;;1.60;;
72939;SDS011;61094;51.154;13.570;2023-05-07T17:07:07;4.05;;;1.65;;
72939;SDS011;61094;51.154;13.570;2023-05-07T17:12:09;6.75;;;2.00;;
72939;SDS011;61094;51.154;13.570;2023-05-07T17:17:12;4.32;;;1.73;;
72939;SDS011;61094;51.154;13.570;2023-05-07T17:22:15;5.93;;;1.98;;
72939;SDS011;61094;51.154;13.570;2023-05-07T17:27:19;4.97;;;1.60;;
72939;SDS011;61094;51.154;13.570;2023-05-07T17:32:35;4.28;;;2.15;;
72939;SDS011;61094;51.154;13.570;2023-05-07T17:43:54;3.22;;;1.48;;
72939;SDS011;61094;51.154;13.570;2023-05-07T17:48:58;2.72;;;1.25;;
72939;SDS011;61094;51.154;13.570;2023-05-07T17:54:03;2.63;;;1.23;;
72939;SDS011;61094;51.154;13.570;2023-05-07T17:59:19;3.65;;;1.38;;
72939;SDS011;61094;51.154;13.570;2023-05-07T18:04:34;3.50;;;0.75;;
72939;SDS011;61094;51.154;13.570;2023-05-07T18:09:36;4.57;;;2.15;;
72939;SDS011;61094;51.154;13.570;2023-05-07T18:14:37;2.22;;;1.20;;
72939;SDS011;61094;51.154;13.570;2023-05-07T18:19:41;4.47;;;1.58;;
72939;SDS011;61094;51.154;13.570;2023-05-07T18:24:43;3.15;;;1.40;;
72939;SDS011;61094;51.154;13.570;2023-05-07T18:29:46;3.10;;;1.60;;
72939;SDS011;61094;51.154;13.570;2023-05-07T18:34:49;10.60;;;1.63;;
72939;SDS011;61094;51.154;13.570;2023-05-07T18:39:51;4.22;;;1.42;;
72939;SDS011;61094;51.154;13.570;2023-05-07T18:44:54;5.35;;;1.10;;
72939;SDS011;61094;51.154;13.570;2023-05-07T18:49:57;4.47;;;1.90;;
72939;SDS011;61094;51.154;13.570;2023-05-07T18:54:59;3.30;;;1.25;;
72939;SDS011;61094;51.154;13.570;2023-05-07T19:00:01;3.72;;;1.52;;
72939;SDS011;61094;51.154;13.570;2023-05-07T19:05:07;1.92;;;0.93;;
72939;SDS011;61094;51.154;13.570;2023-05-07T19:10:09;4.68;;;1.95;;
72939;SDS011;61094;51.154;13.570;2023-05-07T19:15:11;3.53;;;1.73;;
72939;SDS011;61094;51.154;13.570;2023-05-07T19:20:14;5.38;;;1.65;;
72939;SDS011;61094;51.154;13.570;2023-05-07T19:30:17;4.05;;;1.40;;
72939;SDS011;61094;51.154;13.570;2023-05-07T19:35:20;3.22;;;1.40;;
72939;SDS011;61094;51.154;13.570;2023-05-07T19:40:24;4.70;;;1.33;;
72939;SDS011;61094;51.154;13.570;2023-05-07T19:45:26;4.35;;;1.85;;
72939;SDS011;61094;51.154;13.570;2023-05-07T19:50:30;4.22;;;1.45;;
72939;SDS011;61094;51.154;13.570;2023-05-07T19:55:33;3.40;;;1.45;;
72939;SDS011;61094;51.154;13.570;2023-05-07T20:00:37;3.22;;;1.13;;
72939;SDS011;61094;51.154;13.570;2023-05-07T20:05:40;4.18;;;1.65;;
72939;SDS011;61094;51.154;13.570;2023-05-07T20:10:42;3.03;;;1.73;;
72939;SDS011;61094;51.154;13.570;2023-05-07T20:15:43;4.95;;;2.00;;
72939;SDS011;61094;51.154;13.570;2023-05-07T20:20:47;4.07;;;1.63;;
72939;SDS011;61094;51.154;13.570;2023-05-07T20:25:49;6.50;;;2.38;;
72939;SDS011;61094;51.154;13.570;2023-05-07T20:30:51;4.82;;;2.00;;
72939;SDS011;61094;51.154;13.570;2023-05-07T20:35:56;4.63;;;2.15;;
72939;SDS011;61094;51.154;13.570;2023-05-07T20:40:57;5.72;;;2.58;;
72939;SDS011;61094;51.154;13.570;2023-05-07T20:45:59;4.80;;;2.33;;
72939;SDS011;61094;51.154;13.570;2023-05-07T20:51:03;6.45;;;2.20;;
72939;SDS011;61094;51.154;13.570;2023-05-07T20:56:05;4.70;;;1.75;;
72939;SDS011;61094;51.154;13.570;2023-05-07T21:01:06;6.68;;;2.00;;
72939;SDS011;61094;51.154;13.570;2023-05-07T21:06:09;5.43;;;2.50;;
72939;SDS011;61094;51.154;13.570;2023-05-07T21:11:11;6.47;;;2.35;;
72939;SDS011;61094;51.154;13.570;2023-05-07T21:16:13;4.70;;;1.70;;
72939;SDS011;61094;51.154;13.570;2023-05-07T21:21:17;5.90;;;2.00;;
72939;SDS011;61094;51.154;13.570;2023-05-07T21:26:18;3.67;;;1.63;;
72939;SDS011;61094;51.154;13.570;2023-05-07T21:31:20;5.70;;;1.80;;
72939;SDS011;61094;51.154;13.570;2023-05-07T21:36:23;3.88;;;1.60;;
72939;SDS011;61094;51.154;13.570;2023-05-07T21:41:25;3.90;;;1.35;;
72939;SDS011;61094;51.154;13.570;2023-05-07T21:46:27;2.83;;;1.20;;
72939;SDS011;61094;51.154;13.570;2023-05-07T21:51:31;4.78;;;1.52;;
72939;SDS011;61094;51.154;13.570;2023-05-07T21:56:33;5.05;;;1.90;;
72939;SDS011;61094;51.154;13.570;2023-05-07T22:01:35;3.03;;;1.27;;
72939;SDS011;61094;51.154;13.570;2023-05-07T22:06:38;3.45;;;1.30;;
72939;SDS011;61094;51.154;13.570;2023-05-07T22:11:40;3.63;;;1.20;;
72939;SDS011;61094;51.154;13.570;2023-05-07T22:16:41;3.83;;;1.70;;
72939;SDS011;61094;51.154;13.570;2023-05-07T22:21:44;5.43;;;2.03;;
72939;SDS011;61094;51.154;13.570;2023-05-07T22:26:46;4.07;;;1.50;;
72939;SDS011;61094;51.154;13.570;2023-05-07T22:31:48;2.15;;;1.05;;
72939;SDS011;61094;51.154;13.570;2023-05-07T22:36:51;3.47;;;1.45;;
72939;SDS011;61094;51.154;13.570;2023-05-07T22:41:55;4.05;;;1.52;;
72939;SDS011;61094;51.154;13.570;2023-05-07T22:46:57;2.83;;;1.25;;
72939;SDS011;61094;51.154;13.570;2023-05-07T22:52:00;4.45;;;1.63;;
72939;SDS011;61094;51.154;13.570;2023-05-07T22:57:03;3.42;;;1.38;;
72939;SDS011;61094;51.154;13.570;2023-05-07T23:02:05;5.03;;;2.00;;
72939;SDS011;61094;51.154;13.570;2023-05-07T23:07:08;3.65;;;1.75;;
72939;SDS011;61094;51.154;13.570;2023-05-07T23:12:11;5.05;;;1.92;;
72939;SDS011;61094;51.154;13.570;2023-05-07T23:17:12;4.85;;;1.73;;
72939;SDS011;61094;51.154;13.570;2023-05-07T23:22:15;5.28;;;2.13;;
72939;SDS011;61094;51.154;13.570;2023-05-07T23:27:17;4.80;;;1.63;;
72939;SDS011;61094;51.154;13.570;2023-05-07T23:32:19;5.65;;;2.05;;
72939;SDS011;61094;51.154;13.570;2023-05-07T23:37:22;6.43;;;1.92;;
72939;SDS011;61094;51.154;13.570;2023-05-07T23:42:24;5.10;;;1.63;;
72939;SDS011;61094;51.154;13.570;2023-05-07T23:47:25;5.60;;;2.08;;
72939;SDS011;61094;51.154;13.570;2023-05-07T23:52:28;4.20;;;2.08;;
72939;SDS011;61094;51.154;13.570;2023-05-07T23:57:30;6.00;;;2.05;;
